createdAt,value
2018-08-09T00:01:20.611Z,21.70
2018-08-09T00:05:24.002Z,21.60
2018-08-09T00:09:27.340Z,21.60
2018-08-09T00:13:30.671Z,21.60
2018-08-09T00:17:34.011Z,21.60
2018-08-09T00:21:37.363Z,21.50
2018-08-09T00:25:40.780Z,21.50
2018-08-09T00:29:44.717Z,21.50
2018-08-09T00:33:48.043Z,21.50
2018-08-09T00:37:53.023Z,21.50
2018-08-09T00:41:56.360Z,21.40
2018-08-09T00:45:59.696Z,21.40
2018-08-09T00:50:03.087Z,21.30
2018-08-09T00:54:07.112Z,21.30
2018-08-09T00:58:10.430Z,21.20
2018-08-09T01:02:13.795Z,21.20
2018-08-09T01:06:17.145Z,21.10
2018-08-09T01:10:20.524Z,21.10
2018-08-09T01:14:23.864Z,21.00
2018-08-09T01:18:27.202Z,20.90
2018-08-09T01:22:30.551Z,20.80
2018-08-09T01:26:33.903Z,20.80
2018-08-09T01:30:37.632Z,20.70
2018-08-09T01:34:40.977Z,20.60
2018-08-09T01:38:44.322Z,20.60
2018-08-09T01:42:58.764Z,20.50
2018-08-09T01:47:02.096Z,20.50
2018-08-09T01:51:05.428Z,20.40
2018-08-09T01:55:08.767Z,20.40
2018-08-09T01:59:12.082Z,20.40
2018-08-09T02:03:16.968Z,20.40
2018-08-09T02:07:20.843Z,20.30
2018-08-09T02:11:24.186Z,20.30
2018-08-09T02:15:27.547Z,20.30
2018-08-09T02:19:31.206Z,20.30
2018-08-09T02:23:34.943Z,20.40
2018-08-09T02:27:38.299Z,20.30
2018-08-09T02:31:41.666Z,20.30
2018-08-09T02:35:45.249Z,20.30
2018-08-09T02:39:48.589Z,20.30
2018-08-09T02:43:51.942Z,20.30
2018-08-09T02:47:55.289Z,20.20
2018-08-09T02:51:58.628Z,20.20
2018-08-09T02:56:01.958Z,20.10
2018-08-09T03:00:05.944Z,20.10
2018-08-09T03:04:09.297Z,20.00
2018-08-09T03:08:12.646Z,20.00
2018-08-09T03:12:15.988Z,20.00
2018-08-09T03:16:19.322Z,20.00
2018-08-09T03:20:22.639Z,20.00
2018-08-09T03:24:26.032Z,20.00
2018-08-09T03:28:30.471Z,20.00
2018-08-09T03:32:33.861Z,20.00
2018-08-09T03:36:38.877Z,20.00
2018-08-09T03:40:42.206Z,20.00
2018-08-09T03:44:45.534Z,20.00
2018-08-09T03:48:48.876Z,20.00
2018-08-09T03:52:52.202Z,20.00
2018-08-09T03:56:55.527Z,20.00
2018-08-09T04:00:58.903Z,20.00
2018-08-09T04:05:02.223Z,19.90
2018-08-09T04:09:08.485Z,19.90
2018-08-09T04:13:11.823Z,19.90
2018-08-09T04:17:19.944Z,19.90
2018-08-09T04:21:23.287Z,19.90
2018-08-09T04:25:26.619Z,19.90
2018-08-09T04:29:29.946Z,19.90
2018-08-09T04:33:34.643Z,19.90
2018-08-09T04:37:38.028Z,19.90
2018-08-09T04:41:41.356Z,19.80
2018-08-09T04:45:44.674Z,19.80
2018-08-09T04:49:48.002Z,19.80
2018-08-09T04:53:51.328Z,19.80
2018-08-09T04:57:56.061Z,19.80
2018-08-09T05:01:59.398Z,19.80
2018-08-09T05:06:03.220Z,19.90
2018-08-09T05:10:09.396Z,19.90
2018-08-09T05:14:12.747Z,19.90
2018-08-09T05:18:16.070Z,19.90
2018-08-09T05:22:19.404Z,19.90
2018-08-09T05:26:22.755Z,20.00
2018-08-09T05:30:26.143Z,20.00
2018-08-09T05:34:29.489Z,20.00
2018-08-09T05:38:32.848Z,20.10
2018-08-09T05:42:36.906Z,20.20
2018-08-09T05:46:40.214Z,20.20
2018-08-09T05:50:43.571Z,20.30
2018-08-09T05:54:46.900Z,20.30
2018-08-09T05:58:51.062Z,20.40
2018-08-09T06:02:54.428Z,20.50
2018-08-09T06:06:57.776Z,20.60
2018-08-09T06:11:01.119Z,20.70
2018-08-09T06:15:04.804Z,20.80
2018-08-09T06:19:08.358Z,20.90
2018-08-09T06:23:11.749Z,21.00
2018-08-09T06:27:16.035Z,21.10
2018-08-09T06:31:23.461Z,21.20
2018-08-09T06:35:26.819Z,21.30
2018-08-09T06:39:30.181Z,21.40
2018-08-09T06:43:33.522Z,21.50
2018-08-09T06:47:36.853Z,21.70
2018-08-09T06:51:40.211Z,21.80
2018-08-09T06:55:43.539Z,21.90
2018-08-09T06:59:46.906Z,22.00
2018-08-09T07:03:50.266Z,22.20
2018-08-09T07:07:53.615Z,22.30
2018-08-09T07:11:56.935Z,22.50
2018-08-09T07:16:00.262Z,22.60
2018-08-09T07:20:03.742Z,22.70
2018-08-09T07:24:07.085Z,22.90
2018-08-09T07:28:10.447Z,23.00
2018-08-09T07:32:13.791Z,23.20
2018-08-09T07:36:17.114Z,23.30
2018-08-09T07:40:20.484Z,23.50
2018-08-09T07:44:23.815Z,23.60
2018-08-09T07:48:27.179Z,23.80
2018-08-09T07:52:30.550Z,23.90
2018-08-09T07:56:33.863Z,24.10
2018-08-09T08:00:37.233Z,24.30
2018-08-09T08:04:40.567Z,24.50
2018-08-09T08:08:43.883Z,24.70
2018-08-09T08:12:47.206Z,24.80
2018-08-09T08:16:50.613Z,24.80
2018-08-09T08:20:53.936Z,24.70
2018-08-09T08:25:00.290Z,24.80
2018-08-09T08:29:03.663Z,24.70
2018-08-09T08:33:06.994Z,24.70
2018-08-09T08:37:10.384Z,24.70
2018-08-09T08:41:13.819Z,24.70
2018-08-09T08:45:17.149Z,24.70
2018-08-09T08:49:20.471Z,24.70
2018-08-09T08:53:23.780Z,24.70
2018-08-09T08:57:27.116Z,24.70
2018-08-09T09:01:30.490Z,24.60
2018-08-09T09:05:33.874Z,24.60
2018-08-09T09:09:37.215Z,24.50
2018-08-09T09:13:40.534Z,24.50
2018-08-09T09:17:44.583Z,24.40
2018-08-09T09:21:47.968Z,24.30
2018-08-09T09:25:51.307Z,24.20
2018-08-09T09:29:54.628Z,24.10
2018-08-09T09:33:57.984Z,24.00
2018-08-09T09:38:01.340Z,23.90
2018-08-09T09:42:04.678Z,23.80
2018-08-09T09:46:08.031Z,23.70
2018-08-09T09:50:12.021Z,23.70
2018-08-09T09:54:15.334Z,23.70
2018-08-09T09:58:18.671Z,23.80
2018-08-09T10:02:22.141Z,23.90
2018-08-09T10:06:25.505Z,24.10
2018-08-09T10:10:28.856Z,24.40
2018-08-09T10:14:32.219Z,24.60
2018-08-09T10:18:35.570Z,24.80
2018-08-09T10:22:38.962Z,25.10
2018-08-09T10:26:42.334Z,25.30
2018-08-09T10:30:45.803Z,25.50
2018-08-09T10:34:49.152Z,25.80
2018-08-09T10:38:52.526Z,25.90
2018-08-09T10:42:55.892Z,26.20
2018-08-09T10:46:59.227Z,26.20
2018-08-09T10:51:03.141Z,26.40
2018-08-09T10:55:06.844Z,26.50
2018-08-09T10:59:10.158Z,26.70
2018-08-09T11:03:13.563Z,26.70
2018-08-09T11:07:16.890Z,26.80
2018-08-09T11:11:20.311Z,26.90
2018-08-09T11:15:23.648Z,27.00
2018-08-09T11:19:26.986Z,27.20
2018-08-09T11:23:30.852Z,27.30
2018-08-09T11:27:34.190Z,27.60
2018-08-09T11:35:40.602Z,27.90
2018-08-09T11:39:43.979Z,28.00
2018-08-09T11:43:47.280Z,28.30
2018-08-09T11:47:50.617Z,28.50
2018-08-09T11:51:53.939Z,28.80
2018-08-09T11:55:57.271Z,29.00
2018-08-09T12:00:00.720Z,29.10
2018-08-09T12:04:04.095Z,29.20
2018-08-09T12:08:07.451Z,29.30
2018-08-09T12:12:10.849Z,29.40
2018-08-09T12:16:14.183Z,29.60
2018-08-09T12:20:17.507Z,29.80
2018-08-09T12:24:20.916Z,30.10
2018-08-09T12:28:24.345Z,30.40
2018-08-09T12:32:27.699Z,30.50
2018-08-09T12:36:31.430Z,30.60
2018-08-09T12:40:34.786Z,30.70
2018-08-09T12:44:38.186Z,30.80
2018-08-09T12:48:41.547Z,30.90
2018-08-09T12:52:45.154Z,31.10
2018-08-09T12:56:48.525Z,31.20
2018-08-09T13:00:52.216Z,31.40
2018-08-09T13:04:55.552Z,31.50
2018-08-09T13:08:58.943Z,31.70
2018-08-09T13:13:02.300Z,31.90
2018-08-09T13:17:05.635Z,32.10
2018-08-09T13:21:09.011Z,32.20
2018-08-09T13:25:12.422Z,32.30
2018-08-09T13:29:15.746Z,32.50
2018-08-09T13:33:19.119Z,32.60
2018-08-09T13:37:22.492Z,32.60
2018-08-09T13:41:25.875Z,32.70
2018-08-09T13:45:29.219Z,32.80
2018-08-09T13:49:32.559Z,33.00
2018-08-09T13:53:35.939Z,33.10
2018-08-09T13:57:39.322Z,33.10
2018-08-09T14:01:42.666Z,33.10
2018-08-09T14:05:46.021Z,33.00
2018-08-09T14:09:49.368Z,33.00
2018-08-09T14:13:52.695Z,32.90
2018-08-09T14:17:56.039Z,32.90
2018-08-09T14:21:59.693Z,32.90
2018-08-09T14:26:03.036Z,32.90
2018-08-09T14:30:07.731Z,32.90
2018-08-09T14:34:11.083Z,32.90
2018-08-09T14:38:14.403Z,32.80
2018-08-09T14:42:17.748Z,32.80
2018-08-09T14:46:21.153Z,32.80
2018-08-09T14:50:24.498Z,32.70
2018-08-09T14:54:27.839Z,32.60
2018-08-09T14:58:31.212Z,32.50
2018-08-09T15:02:34.550Z,32.40
2018-08-09T15:06:37.875Z,32.30
2018-08-09T15:10:41.911Z,32.20
2018-08-09T15:14:45.376Z,32.10
2018-08-09T15:18:48.872Z,32.00
2018-08-09T15:22:52.224Z,31.90
2018-08-09T15:26:55.562Z,31.80
2018-08-09T15:30:58.916Z,31.70
2018-08-09T15:35:02.278Z,31.60
2018-08-09T15:39:09.610Z,31.40
2018-08-09T15:43:12.935Z,31.30
2018-08-09T15:47:16.304Z,30.10
2018-08-09T15:51:19.671Z,29.10
2018-08-09T15:55:22.996Z,28.40
2018-08-09T15:59:26.326Z,28.00
2018-08-09T16:03:29.650Z,27.60
2018-08-09T16:07:33.029Z,27.30
2018-08-09T16:11:36.438Z,26.90
2018-08-09T16:15:39.848Z,26.60
2018-08-09T16:19:43.250Z,26.40
2018-08-09T16:23:46.622Z,26.20
2018-08-09T16:27:50.428Z,26.00
2018-08-09T16:31:53.868Z,25.80
2018-08-09T16:35:57.227Z,25.60
2018-08-09T16:40:00.614Z,25.50
2018-08-09T16:44:03.979Z,25.40
2018-08-09T16:48:07.415Z,25.20
2018-08-09T16:52:10.764Z,25.10
2018-08-09T16:56:14.120Z,25.10
2018-08-09T17:00:20.067Z,25.00
2018-08-09T17:04:23.420Z,25.00
2018-08-09T17:08:26.762Z,25.10
2018-08-09T17:12:30.124Z,25.10
2018-08-09T17:16:33.506Z,25.20
2018-08-09T17:20:36.881Z,25.20
2018-08-09T17:24:40.276Z,25.30
2018-08-09T17:28:43.634Z,25.30
2018-08-09T17:32:46.999Z,25.30
2018-08-09T17:36:50.348Z,25.40
2018-08-09T17:40:53.714Z,25.40
2018-08-09T17:44:57.073Z,25.30
2018-08-09T17:49:00.396Z,25.30
2018-08-09T17:53:04.649Z,25.20
2018-08-09T17:57:08.014Z,25.10
2018-08-09T18:01:11.360Z,25.10
2018-08-09T18:05:14.746Z,25.00
2018-08-09T18:09:18.068Z,24.90
2018-08-09T18:13:21.413Z,24.90
2018-08-09T18:17:24.758Z,24.80
2018-08-09T18:21:28.104Z,24.70
2018-08-09T18:25:31.469Z,24.70
2018-08-09T18:29:34.842Z,24.60
2018-08-09T18:33:38.183Z,24.60
2018-08-09T18:37:42.607Z,24.50
2018-08-09T18:41:45.993Z,24.40
2018-08-09T18:45:49.380Z,24.40
2018-08-09T18:49:52.743Z,24.40
2018-08-09T18:53:56.159Z,24.30
2018-08-09T18:57:59.511Z,24.30
2018-08-09T19:02:02.879Z,24.20
2018-08-09T19:06:06.311Z,24.20
2018-08-09T19:10:11.887Z,24.10
2018-08-09T19:14:15.256Z,24.10
2018-08-09T19:18:18.590Z,24.00
2018-08-09T19:22:21.976Z,24.00
2018-08-09T19:26:25.305Z,24.00
2018-08-09T19:30:29.716Z,23.90
2018-08-09T19:34:33.079Z,23.90
2018-08-09T19:38:43.241Z,23.90
2018-08-09T19:42:46.571Z,23.90
2018-08-09T19:46:49.932Z,23.80
2018-08-09T19:50:53.374Z,23.80
2018-08-09T19:54:56.703Z,23.80
2018-08-09T19:59:00.071Z,23.80
2018-08-09T20:03:03.439Z,23.80
2018-08-09T20:07:06.875Z,23.80
2018-08-09T20:11:10.238Z,23.80
2018-08-09T20:15:16.098Z,23.80
2018-08-09T20:19:19.608Z,23.80
2018-08-09T20:23:22.980Z,23.80
2018-08-09T20:27:26.307Z,23.80
2018-08-09T20:31:29.671Z,23.80
2018-08-09T20:35:33.048Z,23.80
2018-08-09T20:39:36.419Z,23.80
2018-08-09T20:43:39.782Z,23.80
2018-08-09T20:47:43.176Z,23.70
2018-08-09T20:51:46.644Z,23.70
2018-08-09T20:55:50.000Z,23.70
2018-08-09T20:59:53.388Z,23.70
2018-08-09T21:03:56.766Z,23.60
2018-08-09T21:08:00.234Z,23.60
2018-08-09T21:12:03.610Z,23.50
2018-08-09T21:16:06.971Z,23.40
2018-08-09T21:20:10.567Z,23.30
2018-08-09T21:24:13.916Z,23.20
2018-08-09T21:28:17.267Z,23.10
2018-08-09T21:32:20.624Z,23.00
2018-08-09T21:36:23.975Z,22.80
2018-08-09T21:40:27.331Z,22.80
2018-08-09T21:44:30.725Z,22.60
2018-08-09T21:48:34.047Z,22.50
2018-08-09T21:52:37.390Z,22.50
2018-08-09T21:56:40.773Z,22.40
2018-08-09T22:00:53.637Z,22.30
2018-08-09T22:05:02.272Z,22.20
2018-08-09T22:10:15.047Z,22.10
2018-08-09T22:14:23.860Z,22.10
2018-08-09T22:18:32.418Z,22.00
2018-08-09T22:22:37.379Z,21.90
2018-08-09T22:26:40.751Z,21.90
2018-08-09T22:30:44.184Z,21.80
2018-08-09T22:34:49.348Z,21.80
2018-08-09T22:38:52.683Z,21.80
2018-08-09T22:42:56.012Z,21.80
2018-08-09T22:46:59.366Z,21.80
2018-08-09T22:51:03.304Z,21.80
2018-08-09T22:55:06.657Z,21.70
2018-08-09T22:59:10.279Z,21.70
2018-08-09T23:03:14.511Z,21.70
2018-08-09T23:07:17.867Z,21.60
